Time;durP1;ratioP1;P1;durP2;ratioP2;P2;SDS_P1;SDS_P2;PMS_P1;PMS_P2;Temp;Humidity;BMP_temperature;BMP_pressure;BME280_temperature;BME280_humidity;BME280_pressure;Samples;Min_cycle;Max_cycle;Signal;HPM_P1;HPM_P2
2022/10/13 00:01:14;;;;;;;12.10;8.53;;;11.00;1.00;;;;;;5043189;28;20184;-56
2022/10/13 00:03:41;;;;;;;12.57;9.43;;;10.70;1.00;;;;;;5043094;28;20190;-56
2022/10/13 00:06:09;;;;;;;12.47;9.30;;;10.70;1.00;;;;;;5043599;28;20449;-56
2022/10/13 00:08:35;;;;;;;11.43;8.67;;;10.70;1.00;;;;;;5048245;28;20457;-52
2022/10/13 00:11:07;;;;;;;17.07;9.57;;;10.70;1.00;;;;;;5054828;28;20436;-54
2022/10/13 00:13:33;;;;;;;11.80;8.57;;;10.70;1.00;;;;;;5048232;28;20812;-54
2022/10/13 00:16:01;;;;;;;12.40;9.03;;;10.70;1.00;;;;;;5049340;28;20458;-55
2022/10/13 00:18:27;;;;;;;14.10;9.53;;;10.70;1.00;;;;;;5046360;28;20191;-54
2022/10/13 00:20:52;;;;;;;15.10;9.17;;;10.60;1.00;;;;;;5050781;28;20469;-53
2022/10/13 00:23:18;;;;;;;13.30;9.03;;;10.60;1.00;;;;;;5052839;28;20709;-54
2022/10/13 00:25:45;;;;;;;14.53;9.10;;;10.60;1.00;;;;;;5049712;28;20190;-55
2022/10/13 00:28:13;;;;;;;16.47;9.90;;;10.60;1.00;;;;;;5051571;28;20190;-56
2022/10/13 00:30:40;;;;;;;12.10;9.57;;;10.70;1.00;;;;;;5049719;28;20453;-55
2022/10/13 00:33:07;;;;;;;13.77;9.03;;;10.70;1.00;;;;;;5052604;28;20451;-53
2022/10/13 00:35:33;;;;;;;12.83;8.93;;;10.70;1.00;;;;;;5051682;28;20488;-55
2022/10/13 00:37:59;;;;;;;10.30;8.90;;;10.60;1.00;;;;;;5050821;28;20447;-56
2022/10/13 00:40:24;;;;;;;14.43;10.30;;;10.60;1.00;;;;;;5052926;28;20466;-53
2022/10/13 00:42:50;;;;;;;14.40;9.17;;;10.50;1.00;;;;;;5050577;28;20673;-54
2022/10/13 00:45:21;;;;;;;11.40;8.47;;;10.50;1.00;;;;;;5059791;28;20211;-56
2022/10/13 00:47:51;;;;;;;13.97;9.53;;;10.50;1.00;;;;;;5050279;28;20185;-55
2022/10/13 00:50:22;;;;;;;10.87;8.10;;;10.50;1.00;;;;;;5051166;28;20446;-52
2022/10/13 00:52:49;;;;;;;9.60;8.60;;;10.50;1.00;;;;;;5048669;28;20476;-52
2022/10/13 00:55:19;;;;;;;13.63;8.67;;;10.50;1.00;;;;;;5048537;28;20455;-55
2022/10/13 00:57:47;;;;;;;11.90;9.90;;;10.50;1.00;;;;;;5052522;28;20439;-55
2022/10/13 01:00:13;;;;;;;16.80;8.60;;;10.50;1.00;;;;;;5055091;28;20455;-56
2022/10/13 01:02:39;;;;;;;13.67;9.50;;;10.50;1.00;;;;;;5052407;28;20428;-52
2022/10/13 01:05:06;;;;;;;12.60;8.43;;;10.40;1.00;;;;;;5049254;28;20459;-54
2022/10/13 01:07:32;;;;;;;12.50;8.93;;;10.40;1.00;;;;;;5050608;28;20183;-55
2022/10/13 01:10:00;;;;;;;12.87;8.50;;;10.40;1.00;;;;;;5049769;28;20417;-52
2022/10/13 01:12:51;;;;;;;13.60;9.30;;;10.40;1.00;;;;;;5047694;28;20451;-55
2022/10/13 01:15:19;;;;;;;8.93;7.50;;;10.50;1.00;;;;;;5049425;28;20469;-55
2022/10/13 01:17:56;;;;;;;17.87;8.50;;;10.50;1.00;;;;;;5050003;28;20470;-55
2022/10/13 01:20:59;;;;;;;11.47;8.53;;;10.60;1.00;;;;;;5049110;28;20452;-53
2022/10/13 01:24:02;;;;;;;11.07;9.37;;;10.60;1.00;;;;;;5050745;28;20459;-54
2022/10/13 01:26:28;;;;;;;16.00;9.00;;;10.60;1.00;;;;;;5043899;28;20454;-56
2022/10/13 01:29:12;;;;;;;13.37;9.97;;;10.70;1.00;;;;;;5048903;28;20534;-54
2022/10/13 01:31:55;;;;;;;13.30;9.20;;;10.70;1.00;;;;;;5043028;28;20657;-54
2022/10/13 01:34:46;;;;;;;14.20;10.10;;;10.80;1.00;;;;;;5047528;28;20449;-55
2022/10/13 01:37:24;;;;;;;11.37;7.80;;;10.80;1.00;;;;;;5050639;28;20453;-53
2022/10/13 01:40:13;;;;;;;15.03;8.67;;;10.90;1.00;;;;;;5050174;28;20811;-55
2022/10/13 01:42:41;;;;;;;11.73;10.27;;;10.90;1.00;;;;;;5043639;28;20474;-53
2022/10/13 01:45:10;;;;;;;12.23;8.50;;;11.10;1.00;;;;;;5050376;28;20480;-55
2022/10/13 01:47:38;;;;;;;12.53;8.53;;;11.00;1.00;;;;;;5049048;28;20446;-55
2022/10/13 01:50:05;;;;;;;11.17;9.60;;;11.10;1.00;;;;;;5051170;28;20439;-56
2022/10/13 01:52:35;;;;;;;12.03;7.60;;;11.10;1.00;;;;;;5045417;28;20447;-56
2022/10/13 01:55:07;;;;;;;12.60;8.20;;;11.00;1.00;;;;;;5046146;28;20471;-55
2022/10/13 01:57:36;;;;;;;20.00;8.83;;;11.00;1.00;;;;;;5047681;28;20462;-56
2022/10/13 02:00:13;;;;;;;12.03;9.03;;;10.90;1.00;;;;;;5049000;28;20468;-55
2022/10/13 02:02:59;;;;;;;13.87;8.80;;;10.80;1.00;;;;;;5049086;28;20448;-55
2022/10/13 02:05:48;;;;;;;11.33;8.83;;;10.80;1.00;;;;;;5050055;28;20494;-55
2022/10/13 02:08:24;;;;;;;12.83;9.00;;;10.80;1.00;;;;;;5046289;28;20482;-56
2022/10/13 02:11:15;;;;;;;15.37;9.40;;;10.80;1.00;;;;;;5049320;28;20813;-54
2022/10/13 02:13:51;;;;;;;14.10;9.20;;;10.80;1.00;;;;;;5050007;28;20462;-55
2022/10/13 02:16:20;;;;;;;11.60;9.17;;;10.80;1.00;;;;;;5050057;28;20470;-54
2022/10/13 02:18:46;;;;;;;10.43;8.67;;;10.70;1.00;;;;;;5049956;28;20526;-55
2022/10/13 02:21:12;;;;;;;12.30;8.57;;;10.70;1.00;;;;;;5044430;28;20456;-53
2022/10/13 02:23:37;;;;;;;10.70;8.77;;;10.70;1.00;;;;;;5050214;28;20802;-54
2022/10/13 02:26:04;;;;;;;12.80;8.30;;;10.70;1.00;;;;;;5048823;28;20203;-53
2022/10/13 02:28:30;;;;;;;12.03;10.00;;;10.70;1.00;;;;;;5050741;28;20222;-56
2022/10/13 02:30:55;;;;;;;15.23;10.20;;;10.70;1.00;;;;;;5049065;28;20923;-55
2022/10/13 02:33:21;;;;;;;15.30;10.07;;;10.60;1.00;;;;;;5061919;28;20451;-55
2022/10/13 02:35:46;;;;;;;12.77;8.93;;;10.60;1.00;;;;;;5050562;28;20213;-53
2022/10/13 02:38:12;;;;;;;11.33;8.93;;;10.70;1.00;;;;;;5047435;28;20184;-51
2022/10/13 02:40:37;;;;;;;14.30;9.90;;;10.70;1.00;;;;;;5050045;28;20185;-54
2022/10/13 02:43:03;;;;;;;14.57;9.87;;;10.70;1.00;;;;;;5046603;28;20234;-54
2022/10/13 02:45:29;;;;;;;12.13;9.03;;;10.80;1.00;;;;;;5049739;28;20667;-53
2022/10/13 02:47:55;;;;;;;10.40;9.30;;;10.80;1.00;;;;;;5048739;28;20204;-55
2022/10/13 02:50:20;;;;;;;12.23;9.97;;;10.80;1.00;;;;;;5049891;28;20183;-53
2022/10/13 02:52:46;;;;;;;12.00;9.53;;;10.80;1.00;;;;;;5049187;28;20851;-53
2022/10/13 02:55:12;;;;;;;15.23;9.57;;;10.70;1.00;;;;;;5046632;28;20215;-53
2022/10/13 02:57:37;;;;;;;16.33;9.30;;;10.80;1.00;;;;;;5045089;28;20629;-53
2022/10/13 03:00:06;;;;;;;15.40;8.77;;;10.80;1.00;;;;;;5046931;28;20203;-54
2022/10/13 03:02:31;;;;;;;9.63;8.57;;;10.80;1.00;;;;;;5048555;28;20545;-54
2022/10/13 03:04:57;;;;;;;12.33;8.47;;;11.10;1.00;;;;;;5049128;28;20536;-53
2022/10/13 03:07:22;;;;;;;11.37;8.97;;;10.90;1.00;;;;;;5047344;28;20715;-54
2022/10/13 03:09:48;;;;;;;13.00;9.27;;;10.80;1.00;;;;;;5048991;28;20245;-53
2022/10/13 03:12:14;;;;;;;12.10;8.80;;;10.80;1.00;;;;;;5045918;28;20187;-55
2022/10/13 03:14:39;;;;;;;13.97;9.23;;;10.80;1.00;;;;;;5047011;28;20211;-54
2022/10/13 03:17:05;;;;;;;16.00;9.70;;;10.80;1.00;;;;;;5046923;28;20231;-54
2022/10/13 03:19:31;;;;;;;12.80;10.10;;;10.70;1.00;;;;;;5049821;28;20182;-56
2022/10/13 03:21:56;;;;;;;16.20;9.73;;;10.70;1.00;;;;;;5047679;28;20207;-54
2022/10/13 03:24:22;;;;;;;14.13;10.40;;;10.70;1.00;;;;;;5049125;28;20195;-56
2022/10/13 03:26:47;;;;;;;10.67;9.53;;;10.60;1.00;;;;;;5043585;28;20649;-54
2022/10/13 03:29:15;;;;;;;13.03;9.80;;;10.60;1.00;;;;;;5046238;28;20539;-55
2022/10/13 03:31:41;;;;;;;15.13;9.43;;;10.50;1.00;;;;;;5043753;28;20207;-54
2022/10/13 03:34:09;;;;;;;13.53;9.73;;;10.50;1.00;;;;;;5045880;28;20455;-52
2022/10/13 03:36:35;;;;;;;12.40;10.20;;;10.40;1.00;;;;;;5041534;28;20217;-55
2022/10/13 03:39:00;;;;;;;13.10;8.90;;;10.40;1.00;;;;;;5048655;28;20446;-53
2022/10/13 03:41:26;;;;;;;12.87;10.43;;;10.40;1.00;;;;;;5049894;28;20465;-55
2022/10/13 03:43:51;;;;;;;18.90;11.20;;;10.50;1.00;;;;;;5048530;28;20244;-56
2022/10/13 03:46:18;;;;;;;14.60;9.60;;;10.50;1.00;;;;;;5046645;28;20281;-54
2022/10/13 03:48:43;;;;;;;14.87;9.83;;;10.60;1.00;;;;;;5045814;28;20195;-56
2022/10/13 03:51:17;;;;;;;15.77;9.83;;;10.70;1.00;;;;;;5047658;28;21111;-54
2022/10/13 03:53:43;;;;;;;14.80;10.33;;;10.80;1.00;;;;;;5055483;28;20269;-55
2022/10/13 03:56:13;;;;;;;11.33;9.37;;;10.80;1.00;;;;;;5053468;28;20464;-55
2022/10/13 03:58:38;;;;;;;19.57;9.77;;;10.90;1.00;;;;;;5049849;28;20447;-56
2022/10/13 04:01:04;;;;;;;12.87;10.13;;;10.90;1.00;;;;;;5047122;28;20450;-53
2022/10/13 04:03:31;;;;;;;17.43;9.23;;;10.90;1.00;;;;;;5052163;28;20274;-55
2022/10/13 04:06:01;;;;;;;13.67;10.63;;;11.10;1.00;;;;;;5053207;28;20206;-53
2022/10/13 04:08:27;;;;;;;15.67;11.20;;;11.20;1.00;;;;;;5051953;28;20461;-56
2022/10/13 04:11:11;;;;;;;15.03;10.00;;;11.30;1.00;;;;;;5053288;28;20442;-56
2022/10/13 04:13:37;;;;;;;14.43;9.97;;;11.10;1.00;;;;;;5052069;28;20451;-54
2022/10/13 04:16:23;;;;;;;11.10;9.50;;;11.20;1.00;;;;;;5052456;28;20496;-53
2022/10/13 04:18:53;;;;;;;13.83;9.13;;;11.10;1.00;;;;;;5050763;28;20198;-55
2022/10/13 04:21:19;;;;;;;15.90;10.00;;;11.20;1.00;;;;;;5053162;28;20467;-54
2022/10/13 04:23:44;;;;;;;15.90;9.80;;;11.20;1.00;;;;;;5051498;28;20457;-54
2022/10/13 04:26:19;;;;;;;13.83;9.80;;;11.20;1.00;;;;;;5052846;28;20960;-54
2022/10/13 04:28:46;;;;;;;12.43;9.80;;;11.10;1.00;;;;;;5051299;28;20211;-54
2022/10/13 04:31:11;;;;;;;14.67;9.40;;;11.10;1.00;;;;;;5052788;28;20400;-54
2022/10/13 04:33:37;;;;;;;14.30;8.80;;;11.00;1.00;;;;;;5050279;28;20451;-55
2022/10/13 04:36:05;;;;;;;12.93;9.83;;;11.00;1.00;;;;;;5052227;28;20266;-55
2022/10/13 04:38:31;;;;;;;11.90;9.50;;;11.10;1.00;;;;;;5051930;28;20194;-53
2022/10/13 04:40:56;;;;;;;11.80;9.30;;;11.00;1.00;;;;;;5050764;28;20439;-56
2022/10/13 04:43:22;;;;;;;12.10;10.30;;;10.90;1.00;;;;;;5050173;28;20219;-55
2022/10/13 04:45:47;;;;;;;13.47;9.50;;;10.90;1.00;;;;;;5052649;28;20236;-54
2022/10/13 04:48:13;;;;;;;14.07;11.30;;;11.00;1.00;;;;;;5050722;28;20191;-56
2022/10/13 04:50:39;;;;;;;11.63;9.30;;;10.90;1.00;;;;;;5052578;28;20197;-55
2022/10/13 04:53:05;;;;;;;16.20;9.63;;;10.90;1.00;;;;;;5050479;28;20205;-55
2022/10/13 04:55:33;;;;;;;16.70;10.90;;;10.90;1.00;;;;;;5052375;28;20212;-54
2022/10/13 04:57:59;;;;;;;13.77;10.30;;;10.90;1.00;;;;;;5048566;28;20285;-55
2022/10/13 05:00:24;;;;;;;18.17;10.40;;;13.90;1.00;;;;;;5052300;28;21051;-54
2022/10/13 05:02:50;;;;;;;14.67;9.43;;;10.90;1.00;;;;;;5052907;28;20551;-54
2022/10/13 05:05:16;;;;;;;12.93;10.17;;;10.90;1.00;;;;;;5048648;28;20557;-54
2022/10/13 05:07:41;;;;;;;14.80;11.30;;;10.90;1.00;;;;;;5051690;28;20235;-54
2022/10/13 05:10:07;;;;;;;12.23;9.70;;;11.00;1.00;;;;;;5051008;28;20484;-54
2022/10/13 05:12:33;;;;;;;15.47;10.53;;;11.00;1.00;;;;;;5050407;28;20198;-53
2022/10/13 05:14:59;;;;;;;17.10;9.43;;;11.00;1.00;;;;;;5050537;28;20481;-54
2022/10/13 05:17:25;;;;;;;13.70;10.73;;;11.10;1.00;;;;;;5051440;28;20431;-55
2022/10/13 05:19:51;;;;;;;13.37;10.53;;;11.20;1.00;;;;;;5051913;28;20471;-56
2022/10/13 05:22:17;;;;;;;14.00;11.03;;;11.20;1.00;;;;;;5071788;28;20205;-54
2022/10/13 05:24:42;;;;;;;16.17;10.40;;;11.20;1.00;;;;;;5053285;28;20439;-55
2022/10/13 05:27:11;;;;;;;19.43;10.63;;;11.20;1.00;;;;;;5050845;28;20186;-54
2022/10/13 05:29:37;;;;;;;13.57;10.50;;;11.20;1.00;;;;;;5049537;28;20699;-53
2022/10/13 05:32:03;;;;;;;18.50;10.67;;;11.10;1.00;;;;;;5051370;28;20453;-55
2022/10/13 05:34:29;;;;;;;14.77;11.63;;;11.10;1.00;;;;;;5050655;28;20501;-55
2022/10/13 05:36:54;;;;;;;16.90;12.00;;;11.10;1.00;;;;;;5051234;28;20565;-56
2022/10/13 05:39:20;;;;;;;25.93;11.87;;;14.10;1.00;;;;;;5051374;28;20211;-54
2022/10/13 05:41:45;;;;;;;27.30;10.87;;;11.10;1.00;;;;;;5047401;28;20232;-54
2022/10/13 05:44:11;;;;;;;18.33;11.00;;;11.20;1.00;;;;;;5049456;28;20225;-55
2022/10/13 05:46:36;;;;;;;19.37;11.50;;;11.20;1.00;;;;;;5050257;28;20191;-53
2022/10/13 05:49:02;;;;;;;13.50;10.90;;;11.20;1.00;;;;;;5048921;28;20219;-54
2022/10/13 05:51:42;;;;;;;13.50;10.77;;;11.20;1.00;;;;;;5051412;28;20211;-54
2022/10/13 05:54:11;;;;;;;20.20;12.50;;;11.30;1.00;;;;;;5051612;28;20462;-56
2022/10/13 05:56:43;;;;;;;15.67;11.20;;;11.30;1.00;;;;;;5070384;28;20540;-54
2022/10/13 05:59:12;;;;;;;14.90;10.70;;;11.30;1.00;;;;;;5058662;28;20789;-54
2022/10/13 06:01:40;;;;;;;19.87;10.43;;;11.40;1.00;;;;;;5048678;28;20507;-55
2022/10/13 06:04:11;;;;;;;12.73;9.63;;;11.40;1.00;;;;;;5048139;28;20445;-55
2022/10/13 06:06:36;;;;;;;19.43;10.60;;;11.50;1.00;;;;;;5048616;28;20461;-56
2022/10/13 06:09:02;;;;;;;15.17;11.40;;;11.50;1.00;;;;;;5050847;28;20516;-54
2022/10/13 06:11:28;;;;;;;17.20;11.10;;;11.50;1.00;;;;;;5048685;28;20644;-55
2022/10/13 06:13:53;;;;;;;16.30;11.97;;;11.90;1.00;;;;;;5049138;28;20285;-55
2022/10/13 06:16:19;;;;;;;14.30;11.10;;;11.60;1.00;;;;;;5049037;28;20335;-54
2022/10/13 06:18:44;;;;;;;13.83;10.73;;;11.50;1.00;;;;;;5045350;28;20230;-55
2022/10/13 06:21:10;;;;;;;18.00;12.53;;;11.50;1.00;;;;;;5048469;28;20196;-55
2022/10/13 06:23:35;;;;;;;16.07;11.07;;;11.50;1.00;;;;;;5049092;28;20637;-55
2022/10/13 06:26:01;;;;;;;15.33;11.27;;;11.50;1.00;;;;;;5047662;28;20199;-53
2022/10/13 06:28:26;;;;;;;15.43;11.37;;;11.50;1.00;;;;;;5049784;28;20264;-55
2022/10/13 06:30:54;;;;;;;21.80;11.47;;;11.40;1.00;;;;;;5048307;28;20204;-54
2022/10/13 06:33:21;;;;;;;15.13;10.70;;;11.40;1.00;;;;;;5049091;28;20729;-56
2022/10/13 06:35:46;;;;;;;15.83;11.50;;;11.40;1.00;;;;;;5048802;28;20587;-54
2022/10/13 06:38:12;;;;;;;11.63;10.43;;;11.30;1.00;;;;;;5049880;28;20471;-55
2022/10/13 06:40:37;;;;;;;16.10;11.87;;;11.40;1.00;;;;;;5047916;28;20187;-55
2022/10/13 06:43:03;;;;;;;13.73;10.90;;;11.40;1.00;;;;;;5049946;28;20220;-55
2022/10/13 06:45:29;;;;;;;17.97;12.77;;;11.50;1.00;;;;;;5046557;28;20630;-55
2022/10/13 06:47:55;;;;;;;16.10;11.00;;;11.50;1.00;;;;;;5050401;28;20440;-56
2022/10/13 06:50:21;;;;;;;15.80;11.30;;;11.70;1.00;;;;;;5049146;28;20213;-54
2022/10/13 06:52:47;;;;;;;17.17;12.10;;;11.70;1.00;;;;;;5048929;28;20193;-53
2022/10/13 06:55:13;;;;;;;17.67;11.57;;;11.70;1.00;;;;;;5047694;28;20901;-54
2022/10/13 06:57:38;;;;;;;15.90;11.87;;;11.70;1.00;;;;;;5045862;28;20200;-54
2022/10/13 07:00:05;;;;;;;14.20;11.10;;;11.80;1.00;;;;;;5049168;28;20199;-55
2022/10/13 07:02:31;;;;;;;16.63;10.53;;;12.00;1.00;;;;;;5048589;28;20184;-54
2022/10/13 07:04:57;;;;;;;14.63;10.70;;;12.10;1.00;;;;;;5049017;28;20443;-53
2022/10/13 07:07:22;;;;;;;19.20;11.83;;;12.30;1.00;;;;;;5048277;28;20191;-54
2022/10/13 07:09:48;;;;;;;17.17;11.60;;;12.40;1.00;;;;;;5048066;28;20192;-54
2022/10/13 07:12:14;;;;;;;15.10;10.93;;;12.50;1.00;;;;;;5048157;28;20210;-55
2022/10/13 07:14:39;;;;;;;12.77;11.17;;;12.60;1.00;;;;;;5049085;28;20199;-55
2022/10/13 07:17:05;;;;;;;14.53;10.90;;;12.70;1.00;;;;;;5048349;28;20321;-57
2022/10/13 07:19:31;;;;;;;14.47;11.03;;;12.70;1.00;;;;;;5047647;28;20524;-54
2022/10/13 07:21:56;;;;;;;16.50;11.20;;;12.80;1.00;;;;;;5049079;28;20538;-56
2022/10/13 07:24:22;;;;;;;13.37;10.73;;;13.10;1.00;;;;;;5048652;28;20184;-56
2022/10/13 07:26:48;;;;;;;16.60;10.97;;;13.30;1.00;;;;;;5048888;28;20195;-54
2022/10/13 07:29:15;;;;;;;18.07;11.10;;;13.30;1.00;;;;;;5046765;28;20982;-55
2022/10/13 07:31:43;;;;;;;18.90;12.10;;;13.50;1.00;;;;;;5042915;28;20195;-53
2022/10/13 07:34:09;;;;;;;14.63;11.57;;;13.50;1.00;;;;;;5048718;28;20449;-54
2022/10/13 07:36:34;;;;;;;14.13;10.53;;;13.50;1.00;;;;;;5049378;28;20490;-54
2022/10/13 07:39:02;;;;;;;16.47;11.33;;;13.50;1.00;;;;;;5052848;28;20440;-55
2022/10/13 07:41:28;;;;;;;14.50;11.03;;;13.60;1.00;;;;;;5060028;28;20191;-55
2022/10/13 07:43:57;;;;;;;15.20;11.30;;;13.90;1.00;;;;;;5061291;28;20481;-54
2022/10/13 07:46:24;;;;;;;14.57;10.60;;;14.00;1.00;;;;;;5051249;28;20594;-54
2022/10/13 07:48:52;;;;;;;16.43;11.47;;;14.00;1.00;;;;;;5051407;28;21018;-55
2022/10/13 07:51:18;;;;;;;21.00;12.37;;;14.00;1.00;;;;;;5052420;28;20464;-55
2022/10/13 07:53:45;;;;;;;16.40;12.07;;;14.10;1.00;;;;;;5052452;28;20453;-55
2022/10/13 07:56:12;;;;;;;16.60;11.50;;;14.30;1.00;;;;;;5052486;28;20262;-56
2022/10/13 07:58:40;;;;;;;16.17;11.90;;;14.50;1.00;;;;;;5051902;28;20450;-54
2022/10/13 08:01:06;;;;;;;16.63;11.33;;;14.90;1.00;;;;;;5049782;28;20478;-54
2022/10/13 08:03:32;;;;;;;17.23;11.10;;;14.90;1.00;;;;;;5050881;28;20461;-54
2022/10/13 08:05:59;;;;;;;16.77;10.83;;;15.10;1.00;;;;;;5052664;28;20623;-56
2022/10/13 08:08:25;;;;;;;15.73;11.47;;;15.30;1.00;;;;;;5051025;28;20223;-54
2022/10/13 08:10:51;;;;;;;14.60;11.63;;;15.50;1.00;;;;;;5051147;28;20437;-55
2022/10/13 08:13:16;;;;;;;17.30;10.70;;;15.50;1.00;;;;;;5051467;28;21009;-55
2022/10/13 08:15:43;;;;;;;14.17;11.67;;;15.30;1.00;;;;;;5054750;28;20211;-54
2022/10/13 08:18:13;;;;;;;15.90;11.47;;;15.10;1.00;;;;;;5051492;28;20195;-53
2022/10/13 08:20:40;;;;;;;14.77;11.27;;;14.90;1.00;;;;;;5051175;28;20440;-54
2022/10/13 08:23:06;;;;;;;14.50;10.90;;;14.80;1.00;;;;;;5051863;28;20441;-54
2022/10/13 08:25:39;;;;;;;13.77;10.53;;;14.90;1.00;;;;;;5053120;28;20414;-55
2022/10/13 08:28:14;;;;;;;16.17;11.40;;;14.90;1.00;;;;;;5050854;28;20450;-53
2022/10/13 08:30:40;;;;;;;15.83;11.37;;;15.20;1.00;;;;;;5051362;28;20433;-54
2022/10/13 08:33:05;;;;;;;15.90;11.70;;;15.40;1.00;;;;;;5051301;28;20439;-54
2022/10/13 08:35:31;;;;;;;18.97;12.57;;;15.60;1.00;;;;;;5049161;28;20195;-54
2022/10/13 08:37:56;;;;;;;18.00;11.60;;;15.70;1.00;;;;;;5050842;28;20213;-55
2022/10/13 08:40:22;;;;;;;14.60;10.77;;;15.70;1.00;;;;;;5048938;28;20184;-56
2022/10/13 08:42:48;;;;;;;14.57;10.73;;;15.90;1.00;;;;;;5049224;28;20211;-55
2022/10/13 08:45:24;;;;;;;15.80;10.97;;;16.00;1.00;;;;;;5050722;28;20216;-54
2022/10/13 08:47:59;;;;;;;13.87;10.57;;;15.90;1.00;;;;;;5049203;28;20294;-55
2022/10/13 08:50:27;;;;;;;15.00;10.93;;;16.00;1.00;;;;;;5052427;28;20459;-54
2022/10/13 08:52:57;;;;;;;14.87;11.43;;;16.00;1.00;;;;;;5050656;28;20407;-56
2022/10/13 08:55:45;;;;;;;13.90;11.60;;;16.00;1.00;;;;;;5051620;28;20424;-55
2022/10/13 08:58:32;;;;;;;12.87;10.83;;;16.00;1.00;;;;;;5050114;28;20448;-55
2022/10/13 09:01:09;;;;;;;16.37;10.77;;;16.20;1.00;;;;;;5050442;28;20439;-55
2022/10/13 09:03:55;;;;;;;14.47;11.60;;;16.30;1.00;;;;;;5049864;28;20425;-55
2022/10/13 09:06:36;;;;;;;13.67;10.90;;;16.30;1.00;;;;;;5052430;28;20951;-55
2022/10/13 09:09:10;;;;;;;14.50;10.70;;;16.30;1.00;;;;;;5049017;28;20460;-55
2022/10/13 09:11:42;;;;;;;17.80;11.27;;;16.50;1.00;;;;;;5049700;28;20798;-54
2022/10/13 09:14:11;;;;;;;13.27;10.73;;;16.50;1.00;;;;;;5051380;28;20443;-53
2022/10/13 09:16:42;;;;;;;12.93;11.53;;;16.40;1.00;;;;;;5049973;28;20499;-55
2022/10/13 09:19:29;;;;;;;14.87;10.60;;;16.50;1.00;;;;;;5051084;28;20444;-55
2022/10/13 09:21:57;;;;;;;17.70;11.00;;;16.60;1.00;;;;;;5049111;28;20428;-55
2022/10/13 09:24:25;;;;;;;11.97;10.33;;;16.70;1.00;;;;;;5049698;28;20441;-55
2022/10/13 09:27:03;;;;;;;13.97;11.67;;;16.80;1.00;;;;;;5048792;28;21262;-54
2022/10/13 09:29:29;;;;;;;17.60;12.00;;;16.80;1.00;;;;;;5051084;28;20420;-55
2022/10/13 09:32:19;;;;;;;12.97;11.43;;;16.90;1.00;;;;;;5048476;28;20456;-53
2022/10/13 09:34:45;;;;;;;11.03;9.93;;;17.20;1.00;;;;;;5049667;28;20454;-55
2022/10/13 09:37:24;;;;;;;13.83;10.63;;;17.30;1.00;;;;;;5056251;28;20554;-54
2022/10/13 09:40:21;;;;;;;16.37;11.20;;;17.50;1.00;;;;;;5051896;28;20436;-54
2022/10/13 09:42:51;;;;;;;14.40;10.50;;;17.70;1.00;;;;;;5047554;28;20518;-56
2022/10/13 09:45:21;;;;;;;18.93;11.57;;;17.90;1.00;;;;;;5050181;28;21156;-55
2022/10/13 09:48:04;;;;;;;13.93;11.23;;;17.90;1.00;;;;;;5050022;28;20524;-55
2022/10/13 09:50:32;;;;;;;18.97;11.80;;;17.90;1.00;;;;;;5047206;28;20527;-54
2022/10/13 09:53:30;;;;;;;13.60;10.77;;;18.10;1.00;;;;;;5044282;28;20446;-55
2022/10/13 09:56:18;;;;;;;14.43;10.77;;;18.20;1.00;;;;;;5050524;28;20476;-54
2022/10/13 09:59:20;;;;;;;13.03;10.20;;;18.30;1.00;;;;;;5049680;28;20962;-54
2022/10/13 10:01:48;;;;;;;14.03;11.20;;;18.20;1.00;;;;;;5051046;28;20442;-54
2022/10/13 10:04:23;;;;;;;16.07;11.63;;;18.40;1.00;;;;;;5051093;28;21214;-54
2022/10/13 10:06:49;;;;;;;15.90;11.47;;;18.70;1.00;;;;;;5051261;28;20901;-55
2022/10/13 10:09:26;;;;;;;12.47;10.90;;;18.90;1.00;;;;;;5053434;28;20583;-54
2022/10/13 10:11:53;;;;;;;15.10;11.30;;;19.00;1.00;;;;;;5063665;28;20245;-54
2022/10/13 10:14:25;;;;;;;14.50;11.43;;;18.90;1.00;;;;;;5050824;28;20412;-55
2022/10/13 10:17:16;;;;;;;14.80;11.03;;;19.30;1.00;;;;;;5051083;28;20526;-54
2022/10/13 10:20:09;;;;;;;12.23;9.63;;;19.50;1.00;;;;;;5046041;28;20433;-55
2022/10/13 10:22:49;;;;;;;15.00;10.70;;;19.70;1.00;;;;;;5052067;28;20427;-53
2022/10/13 10:25:17;;;;;;;17.00;11.70;;;19.80;1.00;;;;;;5044569;28;20424;-54
2022/10/13 10:28:08;;;;;;;14.43;12.00;;;19.80;1.00;;;;;;5049108;28;20829;-55
2022/10/13 10:30:42;;;;;;;14.67;10.93;;;19.70;1.00;;;;;;5049936;28;20402;-54
2022/10/13 10:33:12;;;;;;;12.53;10.47;;;19.80;1.00;;;;;;5051069;28;20441;-54
2022/10/13 10:35:49;;;;;;;15.00;10.90;;;19.80;1.00;;;;;;5050765;28;20440;-53
2022/10/13 10:38:33;;;;;;;12.60;10.00;;;19.90;1.00;;;;;;5051205;28;20453;-54
2022/10/13 10:41:31;;;;;;;14.93;10.77;;;19.90;1.00;;;;;;5062022;28;20405;-53
2022/10/13 10:44:16;;;;;;;12.97;11.03;;;20.00;1.00;;;;;;5045085;28;20515;-56
2022/10/13 10:46:46;;;;;;;16.37;11.60;;;20.10;1.00;;;;;;5050405;28;20999;-53
2022/10/13 10:49:18;;;;;;;12.60;11.30;;;20.00;1.00;;;;;;5049425;28;20507;-54
2022/10/13 10:51:45;;;;;;;15.40;12.43;;;20.00;1.00;;;;;;5049310;28;21025;-54
2022/10/13 10:54:40;;;;;;;13.17;10.20;;;20.10;1.00;;;;;;5054549;28;20432;-55
2022/10/13 10:57:20;;;;;;;14.03;10.20;;;20.00;1.00;;;;;;5046613;28;20446;-53
2022/10/13 10:59:54;;;;;;;15.93;10.40;;;20.10;1.00;;;;;;5045845;28;20420;-55
2022/10/13 11:02:57;;;;;;;11.77;10.57;;;20.00;1.00;;;;;;5043141;28;20434;-55
2022/10/13 11:05:23;;;;;;;17.80;10.90;;;19.80;1.00;;;;;;5049121;28;20488;-52
2022/10/13 11:07:51;;;;;;;14.30;10.00;;;19.60;1.00;;;;;;5049389;28;20591;-54
2022/10/13 11:10:20;;;;;;;11.73;9.97;;;19.40;1.00;;;;;;5048626;28;20198;-56
2022/10/13 11:12:52;;;;;;;11.77;10.27;;;19.30;1.00;;;;;;5046934;28;20417;-55
2022/10/13 11:15:23;;;;;;;12.40;10.23;;;19.40;1.00;;;;;;5047923;28;20420;-54
2022/10/13 11:17:49;;;;;;;13.63;10.17;;;19.40;1.00;;;;;;5047684;28;20436;-53
2022/10/13 11:20:21;;;;;;;11.90;10.23;;;19.60;1.00;;;;;;5044566;28;20519;-53
2022/10/13 11:22:58;;;;;;;11.60;10.00;;;19.80;1.00;;;;;;5069452;28;20755;-54
2022/10/13 11:25:43;;;;;;;12.73;9.90;;;20.00;1.00;;;;;;5052400;28;20750;-52
2022/10/13 11:28:21;;;;;;;12.10;9.90;;;20.30;1.00;;;;;;5045506;28;20419;-53
2022/10/13 11:30:50;;;;;;;11.30;9.67;;;20.50;1.00;;;;;;5056305;28;20795;-53
2022/10/13 11:33:33;;;;;;;13.30;8.97;;;20.90;1.00;;;;;;5043692;28;20942;-54
2022/10/13 11:36:30;;;;;;;14.60;9.33;;;20.90;1.00;;;;;;5048040;28;20469;-55
2022/10/13 11:39:18;;;;;;;13.83;9.83;;;20.90;1.00;;;;;;5047765;28;20519;-54
2022/10/13 11:41:54;;;;;;;12.00;9.40;;;20.80;1.00;;;;;;5047530;28;20428;-55
2022/10/13 11:44:45;;;;;;;12.70;10.00;;;20.80;1.00;;;;;;5045120;28;20459;-53
2022/10/13 11:47:37;;;;;;;14.73;9.03;;;20.70;1.00;;;;;;5047047;28;20522;-53
2022/10/13 11:50:34;;;;;;;14.50;8.57;;;20.50;1.00;;;;;;5048152;28;20421;-54
2022/10/13 11:53:12;;;;;;;13.70;9.40;;;20.50;1.00;;;;;;5047167;28;20415;-54
2022/10/13 11:55:53;;;;;;;15.47;8.97;;;20.70;1.00;;;;;;5052295;28;20494;-54
2022/10/13 11:58:24;;;;;;;13.40;9.37;;;20.60;1.00;;;;;;5045363;28;20444;-55
2022/10/13 12:00:57;;;;;;;12.70;9.70;;;20.70;1.00;;;;;;5046774;28;20443;-52
2022/10/13 12:03:27;;;;;;;11.67;9.20;;;20.70;1.00;;;;;;5051278;28;20992;-54
2022/10/13 12:05:55;;;;;;;10.63;8.80;;;20.70;1.00;;;;;;5048506;28;20427;-55
2022/10/13 12:08:21;;;;;;;12.30;8.67;;;20.90;1.00;;;;;;5053848;28;21034;-53
2022/10/13 12:10:56;;;;;;;10.00;8.20;;;21.20;1.00;;;;;;5055559;28;20480;-54
2022/10/13 12:13:24;;;;;;;9.00;7.70;;;21.20;1.00;;;;;;5046895;28;20298;-55
2022/10/13 12:16:02;;;;;;;10.90;8.40;;;21.10;1.00;;;;;;5046416;28;20468;-55
2022/10/13 12:18:37;;;;;;;10.20;8.43;;;20.90;1.00;;;;;;5047954;28;20418;-54
2022/10/13 12:21:12;;;;;;;11.03;9.20;;;21.00;1.00;;;;;;5061850;28;20410;-54
2022/10/13 12:23:39;;;;;;;13.00;8.80;;;21.00;1.00;;;;;;5047414;28;20532;-55
2022/10/13 12:26:04;;;;;;;11.97;8.60;;;21.20;1.00;;;;;;5052033;28;20510;-54
2022/10/13 12:28:49;;;;;;;8.87;7.87;;;21.20;1.00;;;;;;5051363;28;20458;-54
2022/10/13 12:31:26;;;;;;;9.57;8.60;;;21.20;1.00;;;;;;5050523;28;20449;-54
2022/10/13 12:33:59;;;;;;;11.90;9.00;;;21.10;1.00;;;;;;5051010;28;20445;-54
2022/10/13 12:36:30;;;;;;;10.43;8.67;;;21.20;1.00;;;;;;5048893;28;20478;-53
2022/10/13 12:39:03;;;;;;;10.77;8.50;;;21.30;1.00;;;;;;5051961;28;20986;-55
2022/10/13 12:41:34;;;;;;;11.53;8.40;;;21.50;1.00;;;;;;5062859;28;20840;-54
2022/10/13 12:44:02;;;;;;;9.80;7.57;;;21.60;1.00;;;;;;5047350;28;20564;-54
2022/10/13 12:46:37;;;;;;;10.27;7.40;;;21.50;1.00;;;;;;5047969;28;20462;-54
2022/10/13 12:49:11;;;;;;;14.10;8.80;;;21.30;1.00;;;;;;5052042;28;20465;-53
2022/10/13 12:51:38;;;;;;;10.93;8.40;;;21.30;1.00;;;;;;5048410;28;20458;-55
2022/10/13 12:54:15;;;;;;;11.83;7.87;;;21.20;1.00;;;;;;5051819;28;20453;-55
2022/10/13 12:56:41;;;;;;;9.73;8.40;;;21.10;1.00;;;;;;5050245;28;20476;-55
2022/10/13 12:59:17;;;;;;;11.23;8.10;;;21.10;1.00;;;;;;5048546;28;20450;-53